createdAt,value
2023-02-03T00:00:16.611Z,23.10
2023-02-03T00:04:06.655Z,24.95
2023-02-03T00:07:32.336Z,24.65
2023-02-03T00:11:15.412Z,21.55
2023-02-03T00:15:07.932Z,20.95
2023-02-03T00:18:38.043Z,23.62
2023-02-03T00:22:24.914Z,23.73
2023-02-03T00:25:53.449Z,22.62
2023-02-03T00:29:22.879Z,25.00
2023-02-03T00:32:48.022Z,26.85
2023-02-03T00:36:26.960Z,28.73
2023-02-03T00:43:24.696Z,24.37
2023-02-03T00:46:58.440Z,25.32
2023-02-03T00:50:24.686Z,24.92
2023-02-03T00:53:37.317Z,26.60
2023-02-03T00:57:02.541Z,23.12
2023-02-03T01:00:24.526Z,25.55
2023-02-03T01:04:01.246Z,22.95
2023-02-03T01:07:28.201Z,22.37
2023-02-03T01:11:37.421Z,20.60
2023-02-03T01:15:14.230Z,22.98
2023-02-03T01:18:42.318Z,22.05
2023-02-03T01:22:04.040Z,20.53
2023-02-03T01:25:31.617Z,21.73
2023-02-03T01:28:45.677Z,19.62
2023-02-03T01:32:09.128Z,20.00
2023-02-03T01:35:29.050Z,22.48
2023-02-03T01:42:15.032Z,18.92
2023-02-03T01:45:35.161Z,21.60
2023-02-03T01:49:11.713Z,23.02
2023-02-03T01:52:28.450Z,23.38
2023-02-03T01:55:44.656Z,26.42
2023-02-03T01:59:00.928Z,28.17
2023-02-03T02:02:25.941Z,29.15
2023-02-03T02:06:09.099Z,26.07
2023-02-03T02:09:41.714Z,25.50
2023-02-03T02:12:36.848Z,24.50
2023-02-03T02:16:31.074Z,28.30
2023-02-03T02:24:44.530Z,26.33
2023-02-03T02:28:34.423Z,25.20
2023-02-03T02:32:23.656Z,25.35
2023-02-03T02:35:59.968Z,26.07
2023-02-03T02:39:51.325Z,25.50
2023-02-03T02:43:43.432Z,23.18
2023-02-03T02:47:29.429Z,24.25
2023-02-03T02:50:56.244Z,23.35
2023-02-03T02:57:45.449Z,19.65
2023-02-03T03:04:58.769Z,21.17
2023-02-03T03:08:20.861Z,23.30
2023-02-03T03:12:06.686Z,21.15
2023-02-03T03:15:41.650Z,23.10
2023-02-03T03:19:42.361Z,20.25
2023-02-03T03:23:15.665Z,20.85
2023-02-03T03:26:41.007Z,23.75
2023-02-03T03:30:18.643Z,21.45
2023-02-03T03:33:38.465Z,23.18
2023-02-03T03:37:13.411Z,23.00
2023-02-03T03:48:43.586Z,22.70
2023-02-03T03:52:17.401Z,21.85
2023-02-03T03:56:01.257Z,24.55
2023-02-03T03:59:43.457Z,26.55
2023-02-03T04:02:49.010Z,22.13
2023-02-03T04:06:14.727Z,21.87
2023-02-03T04:09:38.204Z,26.33
2023-02-03T04:19:57.844Z,28.37
2023-02-03T04:34:05.481Z,24.57
2023-02-03T04:37:21.962Z,28.45
2023-02-03T04:40:57.071Z,25.37
2023-02-03T04:44:06.702Z,25.35
2023-02-03T04:47:44.919Z,25.62
2023-02-03T04:51:10.853Z,25.10
2023-02-03T04:54:36.785Z,30.08
2023-02-03T04:58:06.612Z,29.18
2023-02-03T05:04:57.756Z,28.65
2023-02-03T05:08:40.983Z,28.55
2023-02-03T05:12:17.721Z,26.80
2023-02-03T05:15:54.534Z,26.27
2023-02-03T05:19:28.663Z,27.45
2023-02-03T05:37:09.213Z,30.30
2023-02-03T05:40:56.003Z,26.15
2023-02-03T06:29:39.457Z,65.92
2023-02-03T06:32:57.206Z,25.40
2023-02-03T06:40:23.253Z,37.08
2023-02-03T06:43:45.055Z,41.13
2023-02-03T06:47:52.457Z,65.55
2023-02-03T06:51:27.628Z,38.05
2023-02-03T06:54:40.924Z,36.42
2023-02-03T06:58:12.135Z,33.48
2023-02-03T07:01:31.107Z,31.75
2023-02-03T07:09:01.827Z,36.50
2023-02-03T07:12:22.320Z,45.63
2023-02-03T07:15:48.151Z,37.42
2023-02-03T07:19:30.661Z,31.65
2023-02-03T07:26:34.736Z,30.80
2023-02-03T07:30:21.856Z,29.27
2023-02-03T07:34:04.265Z,34.03
2023-02-03T07:37:36.740Z,31.27
2023-02-03T07:41:03.883Z,48.13
2023-02-03T07:44:27.441Z,34.70
2023-02-03T07:47:56.229Z,35.45
2023-02-03T07:51:20.341Z,31.80
2023-02-03T07:55:08.718Z,25.88
2023-02-03T08:20:34.177Z,35.80
2023-02-03T08:23:58.561Z,34.73
2023-02-03T08:31:08.475Z,28.38
2023-02-03T08:35:32.349Z,30.92
2023-02-03T08:39:15.087Z,31.65
2023-02-03T08:42:40.265Z,25.70
2023-02-03T09:01:46.675Z,26.97
2023-02-03T09:04:57.251Z,26.42
2023-02-03T09:08:39.394Z,23.90
2023-02-03T09:12:33.948Z,28.25
2023-02-03T09:16:04.119Z,31.15
2023-02-03T09:19:52.860Z,28.52
2023-02-03T09:23:08.171Z,29.63
2023-02-03T09:26:38.016Z,38.05
2023-02-03T09:45:41.084Z,26.00
2023-02-03T10:01:08.732Z,28.75
2023-02-03T10:04:45.767Z,29.80
2023-02-03T10:08:55.123Z,29.23
2023-02-03T10:20:41.780Z,30.30
2023-02-03T10:28:04.536Z,28.42
2023-02-03T10:31:26.949Z,27.50
2023-02-03T10:34:49.873Z,32.70
2023-02-03T10:38:09.722Z,27.58
2023-02-03T10:41:23.703Z,29.20
2023-02-03T10:52:26.051Z,30.62
2023-02-03T10:55:51.659Z,34.38
2023-02-03T10:59:25.743Z,30.37
2023-02-03T11:02:48.406Z,27.05
2023-02-03T11:06:35.600Z,28.05
2023-02-03T11:17:56.426Z,32.13
2023-02-03T11:28:16.387Z,32.55
2023-02-03T11:32:41.191Z,32.95
2023-02-03T11:40:00.080Z,30.77
2023-02-03T11:43:53.301Z,32.78
2023-02-03T11:47:35.342Z,32.53
2023-02-03T11:51:04.237Z,60.38
2023-02-03T11:55:04.376Z,31.87
2023-02-03T12:05:58.721Z,30.95
2023-02-03T12:09:28.343Z,31.62
2023-02-03T12:13:02.061Z,34.92
2023-02-03T12:16:58.993Z,34.10
2023-02-03T12:20:52.244Z,34.35
2023-02-03T12:24:49.103Z,33.25
2023-02-03T12:28:46.781Z,33.55
2023-02-03T12:32:46.542Z,32.85
2023-02-03T12:36:36.810Z,33.63
2023-02-03T12:40:09.708Z,32.17
2023-02-03T12:44:17.239Z,35.48
2023-02-03T12:48:10.688Z,33.78
2023-02-03T12:52:02.929Z,34.63
2023-02-03T12:59:59.179Z,39.73
2023-02-03T13:03:55.615Z,37.15
2023-02-03T13:07:47.608Z,35.43
2023-02-03T13:14:53.646Z,36.40
2023-02-03T13:25:41.990Z,34.18
2023-02-03T13:38:39.769Z,38.80
2023-02-03T13:49:08.033Z,37.73
2023-02-03T13:52:26.218Z,38.20
2023-02-03T13:59:49.112Z,31.52
2023-02-03T14:03:39.426Z,34.55
2023-02-03T14:15:44.677Z,33.53
2023-02-03T14:19:16.411Z,36.83
2023-02-03T14:22:56.209Z,41.02
2023-02-03T14:26:15.192Z,38.30
2023-02-03T14:29:56.848Z,37.40
2023-02-03T14:33:26.529Z,35.87
2023-02-03T14:37:04.360Z,39.15
2023-02-03T14:40:37.546Z,44.45
2023-02-03T14:44:30.297Z,38.35
2023-02-03T14:52:01.604Z,40.70
2023-02-03T14:55:39.147Z,42.73
2023-02-03T14:59:11.991Z,36.50
2023-02-03T15:02:27.622Z,33.67
2023-02-03T15:05:51.614Z,36.17
2023-02-03T15:09:14.154Z,37.48
2023-02-03T15:13:08.110Z,41.13
2023-02-03T15:16:45.644Z,44.85
2023-02-03T15:27:38.039Z,46.63
2023-02-03T15:31:06.884Z,45.33
2023-02-03T15:35:06.590Z,41.68
2023-02-03T15:42:10.609Z,52.98
2023-02-03T15:45:44.314Z,44.35
2023-02-03T15:49:34.192Z,40.23
2023-02-03T15:52:41.819Z,46.45
2023-02-03T15:56:12.927Z,47.03
2023-02-03T16:03:32.911Z,46.25
2023-02-03T16:06:55.009Z,43.55
2023-02-03T16:10:42.184Z,41.05
2023-02-03T16:14:04.299Z,45.78
2023-02-03T16:35:25.485Z,39.85
2023-02-03T16:42:54.245Z,35.70
2023-02-03T16:46:49.359Z,40.63
2023-02-03T16:50:37.262Z,40.83
2023-02-03T16:53:36.201Z,42.95
2023-02-03T16:57:11.239Z,44.40
2023-02-03T17:00:52.003Z,45.43
2023-02-03T17:04:17.857Z,39.35
2023-02-03T17:11:36.937Z,38.63
2023-02-03T17:14:58.473Z,39.13
2023-02-03T17:22:02.920Z,37.90
2023-02-03T17:25:26.717Z,43.98
2023-02-03T17:28:53.236Z,35.90
2023-02-03T17:36:42.973Z,36.45
2023-02-03T17:58:29.753Z,36.23
2023-02-03T18:01:55.513Z,35.38
2023-02-03T18:05:31.173Z,39.60
2023-02-03T18:09:01.219Z,42.33
2023-02-03T18:12:14.606Z,38.60
2023-02-03T18:15:37.481Z,36.73
2023-02-03T18:19:01.847Z,38.58
2023-02-03T18:22:31.173Z,39.27
2023-02-03T18:25:50.956Z,35.60
2023-02-03T18:29:30.785Z,45.28
2023-02-03T18:33:09.503Z,47.85
2023-02-03T18:36:46.085Z,52.75
2023-02-03T18:40:25.049Z,47.98
2023-02-03T18:43:45.154Z,47.55
2023-02-03T18:46:57.846Z,50.35
2023-02-03T18:50:29.861Z,47.13
2023-02-03T18:53:57.935Z,44.25
2023-02-03T19:00:43.847Z,41.42
2023-02-03T19:04:13.472Z,36.95
2023-02-03T19:07:29.643Z,38.80
2023-02-03T19:14:57.974Z,35.75
2023-02-03T19:18:27.780Z,35.38
2023-02-03T19:22:11.960Z,34.35
2023-02-03T19:25:31.640Z,35.30
2023-02-03T19:28:48.690Z,34.80
2023-02-03T19:32:30.698Z,36.77
2023-02-03T19:36:22.097Z,36.33
2023-02-03T19:53:53.818Z,28.47
2023-02-03T20:00:29.702Z,25.65
2023-02-03T20:03:55.334Z,31.68
2023-02-03T20:07:37.435Z,25.80
2023-02-03T20:11:04.263Z,26.07
2023-02-03T20:14:34.208Z,24.60
2023-02-03T20:17:53.156Z,27.95
2023-02-03T20:21:16.486Z,24.92
2023-02-03T20:24:34.822Z,26.85
2023-02-03T20:28:19.869Z,30.15
2023-02-03T20:31:42.900Z,28.45
2023-02-03T20:34:56.299Z,25.82
2023-02-03T20:42:02.782Z,23.73
2023-02-03T20:45:32.670Z,19.75
2023-02-03T20:48:53.338Z,22.32
2023-02-03T20:52:27.130Z,22.58
2023-02-03T20:55:56.971Z,20.60
2023-02-03T20:59:20.749Z,22.32
2023-02-03T21:09:51.960Z,18.80
2023-02-03T21:13:09.753Z,18.85
2023-02-03T21:16:50.572Z,22.50
2023-02-03T21:20:19.681Z,23.25
2023-02-03T21:26:57.847Z,20.72
2023-02-03T21:30:31.759Z,22.07
2023-02-03T21:33:59.298Z,20.48
2023-02-03T21:37:41.432Z,20.88
2023-02-03T21:45:12.073Z,20.55
2023-02-03T21:48:52.855Z,25.27
2023-02-03T21:52:27.007Z,23.52
2023-02-03T21:56:05.809Z,22.07
2023-02-03T22:00:01.155Z,21.82
2023-02-03T22:03:53.294Z,21.77
2023-02-03T22:07:22.476Z,23.20
2023-02-03T22:10:52.603Z,26.15
2023-02-03T22:14:38.073Z,24.27
2023-02-03T22:17:58.925Z,27.50
2023-02-03T22:21:22.795Z,27.45
